createdAt,value
2023-03-21T00:00:40.527Z,7.90
2023-03-21T00:03:07.877Z,7.00
2023-03-21T00:05:34.388Z,7.50
2023-03-21T00:08:02.549Z,7.28
2023-03-21T00:10:39.844Z,7.32
2023-03-21T00:13:13.009Z,7.22
2023-03-21T00:21:46.242Z,7.53
2023-03-21T00:24:02.331Z,7.03
2023-03-21T00:26:28.789Z,7.80
2023-03-21T00:28:55.348Z,8.07
2023-03-21T00:31:21.730Z,7.35
2023-03-21T00:33:48.588Z,7.93
2023-03-21T00:36:16.227Z,7.70
2023-03-21T00:38:43.514Z,8.80
2023-03-21T00:41:25.852Z,7.90
2023-03-21T00:43:58.056Z,7.53
2023-03-21T00:46:27.630Z,7.35
2023-03-21T00:48:56.502Z,7.35
2023-03-21T00:51:26.971Z,7.55
2023-03-21T00:53:55.661Z,7.90
2023-03-21T00:56:22.129Z,7.95
2023-03-21T00:58:48.729Z,7.25
2023-03-21T01:01:15.345Z,7.15
2023-03-21T01:03:50.799Z,8.05
2023-03-21T01:06:19.660Z,8.48
2023-03-21T01:08:52.562Z,8.15
2023-03-21T01:11:23.301Z,7.22
2023-03-21T01:13:56.191Z,6.72
2023-03-21T01:16:26.401Z,7.00
2023-03-21T01:18:52.975Z,7.75
2023-03-21T01:21:19.805Z,8.07
2023-03-21T01:23:47.323Z,7.78
2023-03-21T01:26:14.399Z,7.55
2023-03-21T01:28:42.499Z,8.25
2023-03-21T01:31:11.317Z,8.13
2023-03-21T01:33:37.691Z,8.30
2023-03-21T01:36:12.737Z,11.82
2023-03-21T01:38:39.547Z,11.60
2023-03-21T01:41:17.062Z,11.57
2023-03-21T01:43:45.854Z,12.95
2023-03-21T01:46:22.420Z,11.20
2023-03-21T01:48:54.671Z,13.02
2023-03-21T01:51:22.392Z,12.57
2023-03-21T01:53:49.548Z,11.50
2023-03-21T01:56:29.661Z,12.00
2023-03-21T01:59:03.839Z,11.35
2023-03-21T02:01:32.006Z,10.45
2023-03-21T02:04:03.580Z,8.00
2023-03-21T02:06:36.608Z,8.00
2023-03-21T02:09:08.689Z,7.63
2023-03-21T02:11:37.236Z,7.63
2023-03-21T02:16:56.283Z,6.95
2023-03-21T02:20:06.996Z,6.75
2023-03-21T02:23:02.173Z,7.78
2023-03-21T02:25:57.911Z,6.57
2023-03-21T02:28:42.004Z,7.60
2023-03-21T02:31:26.615Z,7.50
2023-03-21T02:34:20.907Z,7.35
2023-03-21T02:37:15.228Z,7.28
2023-03-21T02:39:55.596Z,6.97
2023-03-21T02:42:43.340Z,7.55
2023-03-21T02:45:20.137Z,8.10
2023-03-21T02:47:52.655Z,7.65
2023-03-21T02:50:24.739Z,7.95
2023-03-21T02:52:53.583Z,7.60
2023-03-21T02:55:24.769Z,7.55
2023-03-21T02:57:53.836Z,8.32
2023-03-21T03:00:25.715Z,8.88
2023-03-21T03:03:06.345Z,7.65
2023-03-21T03:05:41.584Z,8.45
2023-03-21T03:08:38.485Z,8.75
2023-03-21T03:11:32.868Z,9.10
2023-03-21T03:14:32.215Z,8.38
2023-03-21T03:17:07.133Z,8.93
2023-03-21T03:19:49.552Z,8.40
2023-03-21T03:22:26.541Z,8.30
2023-03-21T03:25:18.560Z,8.55
2023-03-21T03:27:54.030Z,8.57
2023-03-21T03:30:23.711Z,9.65
2023-03-21T03:32:57.672Z,8.68
2023-03-21T03:35:26.287Z,9.48
2023-03-21T03:40:34.428Z,8.20
2023-03-21T03:43:08.340Z,8.40
2023-03-21T03:45:42.798Z,8.55
2023-03-21T03:48:15.854Z,10.48
2023-03-21T03:50:47.645Z,9.43
2023-03-21T03:53:40.668Z,9.68
2023-03-21T03:56:09.706Z,9.18
2023-03-21T03:58:45.220Z,9.52
2023-03-21T04:01:13.890Z,9.82
2023-03-21T04:03:49.775Z,10.73
2023-03-21T04:06:18.691Z,10.00
2023-03-21T04:08:45.376Z,11.43
2023-03-21T04:11:15.383Z,10.43
2023-03-21T04:13:42.617Z,10.88
2023-03-21T04:16:11.536Z,10.35
2023-03-21T04:18:39.167Z,10.95
2023-03-21T04:21:13.498Z,12.32
2023-03-21T04:23:41.246Z,12.13
2023-03-21T04:26:08.516Z,11.67
2023-03-21T04:28:36.944Z,12.30
2023-03-21T04:31:13.505Z,10.90
2023-03-21T04:33:50.167Z,11.10
2023-03-21T04:36:27.890Z,10.93
2023-03-21T04:38:57.369Z,9.80
2023-03-21T04:41:24.232Z,10.32
2023-03-21T04:43:52.432Z,10.18
2023-03-21T04:46:18.918Z,10.95
2023-03-21T04:48:45.396Z,10.25
2023-03-21T04:51:11.947Z,10.40
2023-03-21T04:53:39.518Z,10.27
2023-03-21T04:56:06.668Z,10.30
2023-03-21T04:58:33.195Z,10.70
2023-03-21T05:00:59.773Z,10.85
2023-03-21T05:03:28.432Z,10.90
2023-03-21T05:08:21.610Z,10.20
2023-03-21T05:10:47.973Z,9.82
2023-03-21T05:13:14.304Z,11.15
2023-03-21T05:15:40.721Z,10.65
2023-03-21T05:18:12.941Z,11.43
2023-03-21T05:20:43.703Z,12.25
2023-03-21T05:23:11.862Z,12.35
2023-03-21T05:25:40.051Z,12.43
2023-03-21T05:28:07.614Z,11.77
2023-03-21T05:30:34.333Z,11.80
2023-03-21T05:33:00.876Z,11.88
2023-03-21T05:35:27.649Z,11.95
2023-03-21T05:37:54.211Z,11.77
2023-03-21T05:40:20.924Z,11.20
2023-03-21T05:42:47.977Z,11.70
2023-03-21T05:45:15.422Z,11.68
2023-03-21T05:47:41.859Z,11.80
2023-03-21T05:50:09.714Z,10.90
2023-03-21T05:52:36.068Z,12.18
2023-03-21T05:55:03.554Z,11.45
2023-03-21T05:57:29.990Z,11.07
2023-03-21T05:59:56.360Z,12.50
2023-03-21T06:02:23.059Z,11.90
2023-03-21T06:04:49.494Z,11.73
2023-03-21T06:07:15.990Z,15.68
2023-03-21T06:09:43.666Z,12.73
2023-03-21T06:12:11.240Z,12.10
2023-03-21T06:14:37.889Z,12.32
2023-03-21T06:17:04.540Z,10.63
2023-03-21T06:19:31.423Z,10.30
2023-03-21T06:21:59.278Z,10.75
2023-03-21T06:24:27.365Z,10.20
2023-03-21T06:26:53.706Z,10.70
2023-03-21T06:29:20.093Z,8.98
2023-03-21T06:31:46.812Z,9.07
2023-03-21T06:34:13.451Z,9.77
2023-03-21T06:36:39.816Z,9.73
2023-03-21T06:39:08.422Z,8.93
2023-03-21T06:44:01.661Z,8.55
2023-03-21T06:46:28.163Z,9.30
2023-03-21T06:48:54.781Z,9.43
2023-03-21T06:51:21.432Z,9.05
2023-03-21T06:53:47.951Z,9.43
2023-03-21T06:56:14.720Z,9.23
2023-03-21T06:58:41.561Z,9.00
2023-03-21T07:01:08.372Z,9.05
2023-03-21T07:03:34.992Z,9.55
2023-03-21T07:06:13.584Z,8.60
2023-03-21T07:08:41.157Z,9.57
2023-03-21T07:11:08.543Z,9.63
2023-03-21T07:13:35.147Z,8.85
2023-03-21T07:16:01.961Z,8.68
2023-03-21T07:18:28.676Z,9.10
2023-03-21T07:20:55.379Z,9.30
2023-03-21T07:23:25.572Z,9.82
2023-03-21T07:25:53.458Z,9.32
2023-03-21T07:28:20.847Z,9.95
2023-03-21T07:30:56.225Z,8.80
2023-03-21T07:33:23.567Z,9.30
2023-03-21T07:35:51.528Z,9.20
2023-03-21T07:38:19.114Z,8.73
2023-03-21T07:40:47.223Z,8.48
2023-03-21T07:43:14.755Z,9.07
2023-03-21T07:45:42.781Z,9.75
2023-03-21T07:48:10.385Z,8.93
2023-03-21T07:50:36.809Z,8.75
2023-03-21T07:53:03.324Z,7.53
2023-03-21T07:55:30.032Z,9.30
2023-03-21T07:57:59.521Z,8.43
2023-03-21T08:00:25.945Z,8.93
2023-03-21T08:02:58.414Z,8.70
2023-03-21T08:05:28.888Z,7.60
2023-03-21T08:07:55.737Z,7.38
2023-03-21T08:10:22.065Z,7.43
2023-03-21T08:12:48.635Z,7.72
2023-03-21T08:15:15.791Z,7.72
2023-03-21T08:17:45.467Z,8.48
2023-03-21T08:20:15.692Z,7.70
2023-03-21T08:22:43.291Z,7.57
2023-03-21T08:25:14.008Z,7.13
2023-03-21T08:27:42.506Z,7.20
2023-03-21T08:30:12.241Z,6.97
2023-03-21T08:32:39.474Z,7.53
2023-03-21T08:35:10.384Z,7.97
2023-03-21T08:37:37.802Z,7.55
2023-03-21T08:40:11.562Z,7.22
2023-03-21T08:42:39.104Z,8.23
2023-03-21T08:45:06.907Z,8.45
2023-03-21T08:47:33.803Z,7.70
2023-03-21T08:50:00.356Z,8.27
2023-03-21T08:52:27.903Z,7.35
2023-03-21T08:54:54.908Z,7.38
2023-03-21T08:57:21.614Z,8.25
2023-03-21T08:59:48.313Z,8.07
2023-03-21T09:02:16.812Z,7.32
2023-03-21T09:07:12.927Z,7.32
2023-03-21T09:09:39.560Z,7.70
2023-03-21T09:12:06.256Z,8.82
2023-03-21T09:14:33.290Z,8.10
2023-03-21T09:16:59.875Z,8.23
2023-03-21T09:19:27.773Z,8.73
2023-03-21T09:21:55.625Z,8.18
2023-03-21T09:24:22.956Z,9.38
2023-03-21T09:26:51.672Z,9.10
2023-03-21T09:29:23.265Z,7.85
2023-03-21T09:31:49.904Z,8.52
2023-03-21T09:34:16.306Z,8.20
2023-03-21T09:36:44.290Z,9.38
2023-03-21T09:39:11.961Z,8.20
2023-03-21T09:41:47.779Z,8.27
2023-03-21T09:44:41.722Z,7.45
2023-03-21T09:47:20.645Z,8.95
2023-03-21T09:49:51.880Z,7.78
2023-03-21T09:52:44.860Z,8.00
2023-03-21T09:55:23.114Z,7.45
2023-03-21T09:58:13.828Z,7.57
2023-03-21T10:00:47.455Z,7.47
2023-03-21T10:03:24.640Z,6.43
2023-03-21T10:06:01.234Z,6.25
2023-03-21T10:08:32.840Z,6.25
2023-03-21T10:11:05.367Z,7.45
2023-03-21T10:13:41.440Z,7.28
2023-03-21T10:16:16.128Z,7.35
2023-03-21T10:18:44.141Z,6.63
2023-03-21T10:21:47.424Z,8.23
2023-03-21T10:24:14.719Z,6.55
2023-03-21T10:26:43.279Z,6.57
2023-03-21T10:31:38.093Z,6.10
2023-03-21T10:34:15.696Z,6.78
2023-03-21T10:36:42.487Z,6.63
2023-03-21T10:39:18.116Z,6.18
2023-03-21T10:41:45.038Z,6.35
2023-03-21T10:44:14.866Z,5.70
2023-03-21T10:46:56.495Z,6.35
2023-03-21T10:49:23.717Z,6.13
2023-03-21T10:51:53.737Z,6.32
2023-03-21T10:54:22.261Z,6.10
2023-03-21T10:59:25.193Z,5.40
2023-03-21T11:01:55.696Z,5.65
2023-03-21T11:04:26.888Z,5.18
2023-03-21T11:06:59.587Z,5.70
2023-03-21T11:09:42.979Z,4.97
2023-03-21T11:12:16.097Z,5.30
2023-03-21T11:14:50.921Z,4.75
2023-03-21T11:17:17.460Z,5.05
2023-03-21T11:19:49.853Z,4.40
2023-03-21T11:22:18.605Z,4.03
2023-03-21T11:24:51.823Z,4.47
2023-03-21T11:27:18.831Z,4.53
2023-03-21T11:29:49.442Z,4.45
2023-03-21T11:32:37.172Z,5.18
2023-03-21T11:35:13.977Z,4.53
2023-03-21T11:37:47.672Z,4.85
2023-03-21T11:40:30.625Z,4.53
2023-03-21T11:43:01.688Z,5.05
2023-03-21T11:45:35.866Z,4.97
2023-03-21T11:48:11.594Z,4.40
2023-03-21T11:50:42.942Z,4.75
2023-03-21T11:53:28.338Z,4.88
2023-03-21T11:56:16.538Z,4.13
2023-03-21T11:59:04.305Z,4.47
2023-03-21T12:01:36.400Z,4.57
2023-03-21T12:04:24.473Z,4.63
2023-03-21T12:10:04.469Z,4.18
2023-03-21T12:12:57.962Z,4.80
2023-03-21T12:15:43.772Z,4.07
2023-03-21T12:18:35.405Z,3.30
2023-03-21T12:21:20.886Z,4.13
2023-03-21T12:24:06.878Z,3.78
2023-03-21T12:26:45.441Z,3.78
2023-03-21T12:31:57.240Z,3.92
2023-03-21T12:34:30.073Z,3.83
2023-03-21T12:37:33.482Z,2.92
2023-03-21T12:40:17.594Z,4.07
2023-03-21T12:42:50.325Z,3.65
2023-03-21T12:45:37.341Z,3.83
2023-03-21T12:48:36.304Z,3.55
2023-03-21T12:51:05.916Z,3.78
2023-03-21T12:53:49.015Z,3.28
2023-03-21T12:56:23.751Z,2.95
2023-03-21T12:58:57.907Z,4.03
2023-03-21T13:01:25.416Z,2.97
2023-03-21T13:04:07.056Z,2.90
2023-03-21T13:06:35.266Z,3.15
2023-03-21T13:09:36.674Z,2.55
2023-03-21T13:12:28.894Z,2.80
2023-03-21T13:15:12.522Z,2.70
2023-03-21T13:17:50.298Z,3.15
2023-03-21T13:20:29.243Z,2.75
2023-03-21T13:22:55.948Z,2.72
2023-03-21T13:25:25.218Z,2.83
2023-03-21T13:28:00.915Z,2.80
2023-03-21T13:30:30.295Z,2.90
2023-03-21T13:33:11.708Z,2.72
2023-03-21T13:35:41.568Z,2.97
2023-03-21T13:38:19.608Z,3.33
2023-03-21T13:40:51.059Z,3.13
2023-03-21T13:43:34.678Z,3.45
2023-03-21T13:46:13.336Z,2.95
2023-03-21T13:48:59.397Z,2.83
2023-03-21T13:51:29.009Z,3.28
2023-03-21T13:54:08.984Z,2.83
2023-03-21T13:56:44.424Z,3.40
2023-03-21T13:59:32.060Z,3.17
2023-03-21T14:02:26.438Z,3.10
2023-03-21T14:05:07.169Z,2.85
2023-03-21T14:07:42.384Z,2.75
2023-03-21T14:10:20.234Z,2.60
2023-03-21T14:12:48.529Z,3.42
2023-03-21T14:15:18.740Z,2.70
2023-03-21T14:17:55.402Z,2.50
2023-03-21T14:20:26.474Z,3.20
2023-03-21T14:22:54.871Z,3.10
2023-03-21T14:25:27.215Z,2.72
2023-03-21T14:27:59.545Z,2.80
2023-03-21T14:30:39.513Z,2.80
2023-03-21T14:33:22.358Z,2.40
2023-03-21T14:35:49.769Z,2.55
2023-03-21T14:38:25.615Z,2.58
2023-03-21T14:40:55.079Z,2.72
2023-03-21T14:43:23.347Z,2.30
2023-03-21T14:45:55.866Z,2.28
2023-03-21T14:48:30.581Z,2.30
2023-03-21T14:51:01.870Z,2.45
2023-03-21T14:53:31.672Z,2.72
2023-03-21T14:56:02.769Z,2.80
2023-03-21T14:58:31.239Z,2.45
2023-03-21T15:01:02.377Z,2.78
2023-03-21T15:03:29.254Z,2.78
2023-03-21T15:05:56.769Z,2.95
2023-03-21T15:08:28.745Z,2.85
2023-03-21T15:11:08.435Z,3.05
2023-03-21T15:13:49.983Z,2.90
2023-03-21T15:16:17.282Z,3.13
2023-03-21T15:18:45.410Z,2.83
2023-03-21T15:21:23.286Z,2.83
2023-03-21T15:23:56.165Z,2.83
2023-03-21T15:26:25.172Z,2.90
2023-03-21T15:28:58.306Z,3.00
2023-03-21T15:31:30.984Z,3.08
2023-03-21T15:33:57.795Z,2.92
2023-03-21T15:36:36.862Z,3.63
2023-03-21T15:39:08.958Z,3.28
2023-03-21T15:41:35.604Z,2.80
2023-03-21T15:44:02.110Z,2.90
2023-03-21T15:46:49.147Z,3.33
2023-03-21T15:49:16.181Z,3.00
2023-03-21T15:51:47.282Z,3.30
2023-03-21T15:54:17.404Z,3.13
2023-03-21T15:56:45.947Z,2.70
2023-03-21T16:01:41.020Z,2.63
2023-03-21T16:04:13.577Z,2.80
2023-03-21T16:07:02.361Z,2.75
2023-03-21T16:09:39.155Z,3.00
2023-03-21T16:12:11.006Z,3.50
2023-03-21T16:14:37.843Z,3.10
2023-03-21T16:17:29.282Z,3.15
2023-03-21T16:19:55.801Z,3.10
2023-03-21T16:22:22.479Z,3.65
2023-03-21T16:24:49.114Z,3.33
2023-03-21T16:27:18.743Z,3.10
2023-03-21T16:29:45.229Z,3.55
2023-03-21T16:32:17.054Z,3.22
2023-03-21T16:34:44.761Z,3.35
2023-03-21T16:37:12.241Z,2.97
2023-03-21T16:39:39.023Z,3.78
2023-03-21T16:42:08.254Z,3.65
2023-03-21T16:44:35.680Z,3.72
2023-03-21T16:47:03.503Z,3.42
2023-03-21T16:49:30.456Z,4.57
2023-03-21T16:51:57.703Z,4.15
2023-03-21T16:54:24.293Z,4.28
2023-03-21T16:56:53.511Z,4.00
2023-03-21T16:59:20.203Z,3.97
2023-03-21T17:01:48.361Z,3.60
2023-03-21T17:04:16.833Z,3.83
2023-03-21T17:06:52.517Z,3.75
2023-03-21T17:09:22.732Z,4.25
2023-03-21T17:11:49.954Z,4.07
2023-03-21T17:14:21.932Z,8.00
2023-03-21T17:16:49.306Z,4.80
2023-03-21T17:19:23.900Z,4.38
2023-03-21T17:21:50.256Z,4.30
2023-03-21T17:24:16.779Z,4.28
2023-03-21T17:26:43.437Z,3.92
2023-03-21T17:29:13.168Z,3.97
2023-03-21T17:31:39.779Z,4.28
2023-03-21T17:34:06.311Z,4.70
2023-03-21T17:36:36.370Z,4.40
2023-03-21T17:39:06.048Z,4.78
2023-03-21T17:41:32.880Z,4.55
2023-03-21T17:43:59.274Z,5.63
2023-03-21T17:46:27.470Z,5.82
2023-03-21T17:48:55.275Z,5.38
2023-03-21T17:51:23.706Z,5.53
2023-03-21T17:53:51.198Z,5.60
2023-03-21T17:56:30.937Z,5.65
2023-03-21T17:59:00.193Z,5.68
2023-03-21T18:01:27.102Z,6.13
2023-03-21T18:03:56.491Z,5.03
2023-03-21T18:06:26.105Z,17.25
2023-03-21T18:08:53.694Z,9.23
2023-03-21T18:11:22.135Z,12.63
2023-03-21T18:13:48.791Z,10.10
2023-03-21T18:16:18.766Z,7.13
2023-03-21T18:18:46.498Z,5.15
2023-03-21T18:21:19.637Z,4.72
2023-03-21T18:23:47.367Z,4.78
2023-03-21T18:26:17.862Z,4.90
2023-03-21T18:28:45.458Z,4.72
2023-03-21T18:31:19.846Z,5.35
2023-03-21T18:33:48.323Z,5.38
2023-03-21T18:36:24.545Z,4.88
2023-03-21T18:38:51.833Z,4.53
2023-03-21T18:41:22.674Z,4.65
2023-03-21T18:44:13.577Z,4.70
2023-03-21T18:46:36.737Z,5.07
2023-03-21T18:49:33.954Z,5.23
2023-03-21T18:51:50.634Z,5.55
2023-03-21T18:54:17.184Z,4.97
2023-03-21T18:59:34.682Z,4.75
2023-03-21T19:02:02.263Z,4.43
2023-03-21T19:04:30.444Z,4.80
2023-03-21T19:06:58.383Z,4.75
2023-03-21T19:09:30.931Z,5.25
2023-03-21T19:11:58.417Z,5.35
2023-03-21T19:14:24.744Z,5.32
2023-03-21T19:19:38.581Z,5.10
2023-03-21T19:22:05.044Z,5.97
2023-03-21T19:24:31.430Z,5.13
2023-03-21T19:26:57.805Z,5.57
2023-03-21T19:29:25.202Z,5.88
2023-03-21T19:31:52.634Z,5.40
2023-03-21T19:34:20.617Z,6.80
2023-03-21T19:36:51.693Z,6.22
2023-03-21T19:39:22.574Z,5.80
2023-03-21T19:41:50.593Z,5.82
2023-03-21T19:44:17.709Z,5.90
2023-03-21T19:46:44.399Z,4.75
2023-03-21T19:49:11.212Z,5.72
2023-03-21T19:51:37.838Z,5.68
2023-03-21T19:54:06.321Z,5.65
2023-03-21T19:56:34.556Z,5.80
2023-03-21T20:01:34.381Z,5.78
2023-03-21T20:04:00.847Z,6.05
2023-03-21T20:06:28.264Z,6.47
2023-03-21T20:09:41.388Z,5.95
2023-03-21T20:11:41.736Z,5.70
2023-03-21T20:14:09.747Z,6.40
2023-03-21T20:16:37.173Z,7.20
2023-03-21T20:19:06.215Z,6.63
2023-03-21T20:21:43.413Z,7.55
2023-03-21T20:24:14.650Z,6.25
2023-03-21T20:26:41.282Z,7.43
2023-03-21T20:29:54.939Z,7.57
2023-03-21T20:31:54.361Z,6.70
2023-03-21T20:34:21.351Z,7.57
2023-03-21T20:36:48.393Z,6.50
2023-03-21T20:39:15.553Z,6.75
2023-03-21T20:41:42.054Z,6.20
2023-03-21T20:46:56.673Z,6.82
2023-03-21T20:49:24.315Z,5.65
2023-03-21T20:52:46.248Z,6.53
2023-03-21T20:54:38.117Z,5.57
2023-03-21T20:57:05.280Z,6.82
2023-03-21T20:59:31.708Z,6.35
2023-03-21T21:01:58.673Z,6.28
2023-03-21T21:05:15.687Z,5.47
2023-03-21T21:07:21.326Z,5.95
2023-03-21T21:09:49.392Z,5.75
2023-03-21T21:12:18.912Z,6.28
2023-03-21T21:14:45.907Z,5.68
2023-03-21T21:17:57.974Z,5.97
2023-03-21T21:20:01.502Z,6.40
2023-03-21T21:22:28.471Z,6.07
2023-03-21T21:24:54.825Z,5.80
2023-03-21T21:27:21.183Z,5.75
2023-03-21T21:29:50.153Z,5.88
2023-03-21T21:32:18.299Z,5.75
2023-03-21T21:34:44.705Z,5.30
2023-03-21T21:37:11.364Z,5.43
2023-03-21T21:39:38.819Z,5.28
2023-03-21T21:42:06.006Z,5.55
2023-03-21T21:44:32.346Z,5.90
2023-03-21T21:46:59.124Z,5.68
2023-03-21T21:49:26.805Z,6.18
2023-03-21T21:51:53.430Z,6.07
2023-03-21T21:54:20.031Z,5.78
2023-03-21T21:56:53.977Z,5.50
2023-03-21T21:59:22.046Z,5.57
2023-03-21T22:01:51.035Z,5.22
2023-03-21T22:04:18.195Z,5.45
2023-03-21T22:06:44.894Z,5.93
2023-03-21T22:09:11.211Z,5.68
2023-03-21T22:11:37.794Z,5.72
2023-03-21T22:14:04.444Z,5.57
2023-03-21T22:16:30.888Z,5.95
2023-03-21T22:18:57.302Z,6.13
2023-03-21T22:21:24.033Z,5.78
2023-03-21T22:23:50.551Z,5.85
2023-03-21T22:26:17.270Z,5.90
2023-03-21T22:28:43.799Z,5.65
2023-03-21T22:31:18.526Z,5.57
2023-03-21T22:33:45.815Z,5.35
2023-03-21T22:36:12.731Z,5.63
2023-03-21T22:38:41.689Z,5.45
2023-03-21T22:41:08.118Z,5.78
2023-03-21T22:43:35.375Z,6.05
2023-03-21T22:46:06.016Z,5.55
2023-03-21T22:48:32.941Z,5.85
2023-03-21T22:51:00.618Z,5.88
2023-03-21T22:53:27.833Z,5.70
2023-03-21T22:55:54.987Z,6.10
2023-03-21T22:58:21.664Z,6.45
2023-03-21T23:00:48.581Z,6.38
2023-03-21T23:03:16.711Z,5.75
2023-03-21T23:05:44.584Z,5.68
2023-03-21T23:08:11.523Z,6.03
2023-03-21T23:10:39.777Z,5.95
2023-03-21T23:13:06.986Z,5.30
2023-03-21T23:15:33.671Z,5.28
2023-03-21T23:18:00.091Z,7.00
2023-03-21T23:20:26.449Z,5.45
2023-03-21T23:22:52.843Z,5.68
2023-03-21T23:25:20.752Z,5.90
2023-03-21T23:27:47.610Z,6.20
2023-03-21T23:30:14.076Z,6.00
2023-03-21T23:32:43.564Z,5.68
2023-03-21T23:35:10.449Z,6.10
2023-03-21T23:37:36.951Z,8.07
2023-03-21T23:40:06.183Z,8.68
2023-03-21T23:42:34.359Z,8.95
2023-03-21T23:45:01.133Z,10.43
2023-03-21T23:47:28.172Z,10.73
2023-03-21T23:49:54.947Z,10.13
2023-03-21T23:52:22.105Z,10.15
2023-03-21T23:54:49.075Z,9.85
2023-03-21T23:57:16.681Z,11.63
2023-03-21T23:59:42.976Z,11.05
